createdAt,value
2022-08-10T00:00:03.911Z,28.20
2022-08-10T00:02:32.014Z,28.10
2022-08-10T00:05:00.190Z,28.10
2022-08-10T00:07:29.698Z,28.10
2022-08-10T00:09:57.662Z,28.10
2022-08-10T00:12:34.654Z,28.10
2022-08-10T00:15:53.165Z,28.00
2022-08-10T00:18:02.946Z,28.00
2022-08-10T00:20:31.045Z,28.00
2022-08-10T00:23:00.535Z,28.00
2022-08-10T00:25:28.539Z,27.90
2022-08-10T00:28:03.645Z,27.90
2022-08-10T00:30:31.891Z,27.90
2022-08-10T00:32:59.970Z,27.80
2022-08-10T00:35:28.127Z,27.80
2022-08-10T00:37:58.035Z,27.80
2022-08-10T00:40:37.330Z,27.80
2022-08-10T00:43:05.978Z,27.70
2022-08-10T00:45:33.997Z,27.70
2022-08-10T00:48:01.981Z,27.70
2022-08-10T00:50:30.179Z,27.60
2022-08-10T00:52:58.187Z,27.60
2022-08-10T00:55:27.669Z,27.60
2022-08-10T00:57:55.827Z,27.60
2022-08-10T01:00:24.021Z,27.50
2022-08-10T01:02:52.245Z,27.50
2022-08-10T01:05:20.773Z,27.50
2022-08-10T01:08:04.205Z,27.50
2022-08-10T01:10:40.182Z,27.40
2022-08-10T01:13:13.330Z,27.40
2022-08-10T01:15:49.021Z,27.30
2022-08-10T01:18:19.642Z,27.30
2022-08-10T01:20:56.072Z,27.30
2022-08-10T01:23:49.452Z,27.30
2022-08-10T01:26:43.357Z,27.20
2022-08-10T01:29:40.347Z,27.20
2022-08-10T01:32:08.939Z,27.20
2022-08-10T01:34:38.861Z,27.10
2022-08-10T01:37:09.610Z,27.10
2022-08-10T01:39:39.005Z,27.10
2022-08-10T01:42:07.638Z,27.10
2022-08-10T01:44:37.527Z,27.00
2022-08-10T01:47:26.290Z,27.00
2022-08-10T01:50:00.251Z,27.00
2022-08-10T01:52:28.329Z,27.00
2022-08-10T01:54:56.444Z,27.00
2022-08-10T01:57:24.516Z,26.90
2022-08-10T02:00:01.864Z,26.90
2022-08-10T02:02:30.889Z,26.80
2022-08-10T02:04:58.874Z,26.80
2022-08-10T02:07:27.501Z,26.80
2022-08-10T02:09:57.938Z,26.80
2022-08-10T02:12:27.757Z,26.80
2022-08-10T02:14:58.284Z,26.70
2022-08-10T02:17:59.259Z,26.70
2022-08-10T02:20:22.310Z,26.70
2022-08-10T02:22:53.261Z,26.70
2022-08-10T02:25:41.643Z,26.70
2022-08-10T02:28:09.554Z,26.60
2022-08-10T02:30:38.970Z,26.60
2022-08-10T02:33:06.925Z,26.60
2022-08-10T02:35:39.922Z,26.60
2022-08-10T02:38:59.358Z,26.50
2022-08-10T02:45:13.777Z,26.50
2022-08-10T02:45:21.100Z,26.50
2022-08-10T02:46:58.954Z,26.50
2022-08-10T02:49:30.344Z,26.40
2022-08-10T02:52:06.559Z,26.40
2022-08-10T02:54:38.292Z,26.40
2022-08-10T02:57:07.464Z,26.30
2022-08-10T02:59:38.424Z,26.30
2022-08-10T03:02:11.841Z,26.30
2022-08-10T03:04:56.222Z,26.30
2022-08-10T03:07:43.212Z,26.20
2022-08-10T03:10:14.887Z,26.20
2022-08-10T03:12:43.332Z,26.20
2022-08-10T03:15:15.750Z,26.20
2022-08-10T03:17:57.794Z,26.20
2022-08-10T03:20:37.119Z,26.10
2022-08-10T03:23:08.762Z,26.10
2022-08-10T03:25:36.765Z,26.10
2022-08-10T03:28:05.009Z,26.10
2022-08-10T03:30:34.093Z,26.00
2022-08-10T03:33:04.182Z,26.00
2022-08-10T03:35:32.262Z,25.90
2022-08-10T03:38:00.460Z,25.90
2022-08-10T03:40:32.240Z,25.90
2022-08-10T03:43:14.369Z,25.90
2022-08-10T03:45:55.091Z,25.90
2022-08-10T03:48:46.912Z,25.90
2022-08-10T03:51:13.921Z,25.80
2022-08-10T03:54:03.156Z,25.80
2022-08-10T03:56:32.383Z,25.80
2022-08-10T03:59:01.061Z,25.70
2022-08-10T04:02:46.746Z,25.70
2022-08-10T04:04:23.662Z,25.80
2022-08-10T04:06:54.416Z,25.70
2022-08-10T04:09:23.579Z,25.60
2022-08-10T04:11:51.648Z,25.60
2022-08-10T04:14:38.832Z,25.60
2022-08-10T04:17:11.993Z,25.60
2022-08-10T04:19:45.948Z,25.60
2022-08-10T04:22:16.363Z,25.50
2022-08-10T04:24:44.311Z,25.50
2022-08-10T04:27:12.142Z,25.50
2022-08-10T04:29:39.928Z,25.50
2022-08-10T04:32:08.180Z,25.50
2022-08-10T04:34:36.160Z,25.50
2022-08-10T04:37:09.023Z,25.50
2022-08-10T04:39:37.760Z,25.40
2022-08-10T04:42:06.101Z,25.40
2022-08-10T04:44:34.148Z,25.40
2022-08-10T04:47:02.165Z,25.40
2022-08-10T04:49:54.323Z,25.40
2022-08-10T04:52:19.501Z,25.40
2022-08-10T04:54:47.558Z,25.40
2022-08-10T04:57:15.716Z,25.40
2022-08-10T04:59:43.685Z,25.40
2022-08-10T05:02:29.122Z,25.40
2022-08-10T05:04:59.623Z,25.50
2022-08-10T05:07:29.174Z,25.40
2022-08-10T05:10:04.798Z,25.40
2022-08-10T05:12:36.485Z,25.40
2022-08-10T05:15:09.365Z,25.40
2022-08-10T05:17:37.452Z,25.40
2022-08-10T05:20:07.253Z,25.30
2022-08-10T05:22:38.570Z,25.40
2022-08-10T05:25:07.763Z,25.30
2022-08-10T05:27:35.784Z,25.40
2022-08-10T05:30:04.228Z,25.40
2022-08-10T05:32:55.323Z,25.50
2022-08-10T05:35:21.120Z,25.40
2022-08-10T05:38:10.637Z,25.40
2022-08-10T05:40:39.694Z,25.50
2022-08-10T05:43:07.621Z,25.60
2022-08-10T05:46:16.854Z,25.60
2022-08-10T05:48:54.900Z,25.70
2022-08-10T05:51:11.740Z,25.70
2022-08-10T05:54:02.803Z,25.70
2022-08-10T05:56:56.807Z,25.80
2022-08-10T06:00:35.087Z,25.80
2022-08-10T06:02:41.136Z,25.80
2022-08-10T06:04:56.792Z,25.90
2022-08-10T06:07:27.105Z,25.90
2022-08-10T06:09:59.015Z,26.00
2022-08-10T06:12:54.480Z,26.00
2022-08-10T06:15:21.774Z,26.00
2022-08-10T06:18:04.104Z,26.00
2022-08-10T06:20:35.925Z,26.10
2022-08-10T06:23:05.036Z,26.10
2022-08-10T06:28:22.761Z,26.20
2022-08-10T06:30:51.015Z,26.20
2022-08-10T06:33:19.387Z,26.20
2022-08-10T06:35:47.497Z,26.30
2022-08-10T06:38:15.504Z,26.30
2022-08-10T06:40:47.902Z,26.30
2022-08-10T06:43:16.759Z,26.40
2022-08-10T06:45:47.170Z,26.50
2022-08-10T06:48:36.655Z,26.50
2022-08-10T06:51:07.931Z,26.60
2022-08-10T06:53:53.606Z,26.60
2022-08-10T06:56:36.264Z,26.70
2022-08-10T06:59:20.872Z,26.70
2022-08-10T07:01:51.744Z,26.80
2022-08-10T07:04:32.415Z,26.90
2022-08-10T07:07:02.359Z,27.00
2022-08-10T07:09:30.389Z,27.20
2022-08-10T07:12:07.325Z,27.40
2022-08-10T07:14:38.541Z,27.60
2022-08-10T07:17:06.988Z,27.70
2022-08-10T07:19:35.059Z,27.80
2022-08-10T07:23:04.800Z,28.00
2022-08-10T07:25:07.441Z,28.20
2022-08-10T07:27:39.204Z,28.40
2022-08-10T07:30:25.198Z,28.60
2022-08-10T07:32:53.326Z,28.70
2022-08-10T07:35:21.739Z,28.90
2022-08-10T07:37:49.990Z,29.00
2022-08-10T07:40:19.553Z,29.10
2022-08-10T07:42:49.570Z,29.20
2022-08-10T07:45:17.529Z,29.30
2022-08-10T07:47:54.334Z,29.50
2022-08-10T07:50:24.474Z,29.60
2022-08-10T07:52:52.841Z,29.80
2022-08-10T07:56:01.816Z,29.90
2022-08-10T07:58:10.488Z,30.10
2022-08-10T08:00:38.395Z,30.20
2022-08-10T08:03:07.630Z,30.40
2022-08-10T08:05:58.346Z,30.50
2022-08-10T08:08:23.743Z,30.60
2022-08-10T08:10:51.726Z,30.80
2022-08-10T08:13:22.153Z,30.90
2022-08-10T08:16:18.437Z,31.10
2022-08-10T08:18:39.727Z,31.20
2022-08-10T08:24:05.432Z,31.40
2022-08-10T08:24:10.314Z,31.50
2022-08-10T08:26:49.352Z,31.70
2022-08-10T08:29:21.732Z,31.90
2022-08-10T08:32:01.068Z,32.00
2022-08-10T08:34:30.209Z,32.10
2022-08-10T08:36:59.793Z,32.30
2022-08-10T08:39:28.188Z,32.40
2022-08-10T08:42:07.170Z,32.60
2022-08-10T08:44:55.981Z,32.70
2022-08-10T08:48:03.135Z,32.90
2022-08-10T08:50:33.921Z,33.00
2022-08-10T08:53:21.612Z,33.20
2022-08-10T08:56:06.257Z,33.30
2022-08-10T08:58:40.206Z,33.50
2022-08-10T09:01:19.413Z,33.70
2022-08-10T09:03:59.959Z,33.80
2022-08-10T09:06:37.995Z,34.00
2022-08-10T09:09:22.449Z,34.10
2022-08-10T09:11:55.672Z,34.30
2022-08-10T09:14:27.030Z,34.50
2022-08-10T09:16:58.856Z,34.70
2022-08-10T09:19:35.683Z,34.90
2022-08-10T09:22:18.523Z,35.00
2022-08-10T09:24:49.898Z,35.20
2022-08-10T09:27:20.492Z,35.30
2022-08-10T09:29:53.934Z,35.50
2022-08-10T09:36:16.356Z,35.60
2022-08-10T09:36:25.984Z,35.80
2022-08-10T09:38:13.049Z,35.90
2022-08-10T09:40:59.562Z,36.20
2022-08-10T09:43:36.430Z,36.30
2022-08-10T09:46:12.039Z,36.50
2022-08-10T09:48:46.683Z,36.70
2022-08-10T09:51:44.749Z,36.90
2022-08-10T09:54:21.759Z,37.00
2022-08-10T09:56:51.183Z,37.20
2022-08-10T09:59:29.151Z,37.40
2022-08-10T10:02:16.365Z,37.60
2022-08-10T10:04:52.298Z,37.80
2022-08-10T10:07:23.711Z,38.00
2022-08-10T10:09:56.350Z,38.10
2022-08-10T10:12:26.913Z,38.40
2022-08-10T10:15:25.348Z,38.50
2022-08-10T10:18:06.495Z,38.70
2022-08-10T10:20:39.046Z,39.00
2022-08-10T10:23:11.818Z,39.10
2022-08-10T10:25:51.728Z,39.30
2022-08-10T10:28:57.566Z,39.50
2022-08-10T10:31:24.361Z,39.70
2022-08-10T10:33:55.486Z,40.00
2022-08-10T10:36:24.711Z,40.10
2022-08-10T10:38:53.915Z,40.30
2022-08-10T10:42:04.004Z,40.50
2022-08-10T10:44:31.914Z,40.70
2022-08-10T10:47:05.372Z,40.90
2022-08-10T10:49:46.217Z,41.10
2022-08-10T10:52:21.413Z,41.30
2022-08-10T10:54:54.853Z,41.50
2022-08-10T10:57:58.812Z,41.70
2022-08-10T11:00:13.898Z,42.00
2022-08-10T11:02:48.680Z,42.10
2022-08-10T11:05:20.531Z,42.30
2022-08-10T11:07:55.634Z,42.40
2022-08-10T11:10:26.670Z,42.60
2022-08-10T11:14:26.908Z,42.80
2022-08-10T11:16:05.653Z,43.00
2022-08-10T11:18:49.618Z,43.20
2022-08-10T11:21:25.054Z,43.40
2022-08-10T11:24:48.304Z,43.80
2022-08-10T11:26:49.053Z,44.70
2022-08-10T11:29:20.137Z,45.90
2022-08-10T11:31:49.433Z,47.10
2022-08-10T11:34:48.170Z,48.00
2022-08-10T11:37:12.804Z,48.80
2022-08-10T11:39:48.433Z,49.70
2022-08-10T11:42:33.288Z,50.40
2022-08-10T11:45:05.301Z,51.30
2022-08-10T11:47:37.582Z,51.90
2022-08-10T11:50:09.669Z,52.30
2022-08-10T11:52:40.341Z,52.40
2022-08-10T11:55:17.288Z,52.50
2022-08-10T11:57:54.214Z,53.00
2022-08-10T12:00:22.234Z,53.40
2022-08-10T12:02:53.320Z,53.90
2022-08-10T12:05:23.952Z,54.20
2022-08-10T12:10:04.072Z,54.50
2022-08-10T12:11:01.159Z,54.90
2022-08-10T12:13:31.236Z,55.20
2022-08-10T12:16:05.277Z,55.30
2022-08-10T12:18:35.200Z,55.40
2022-08-10T12:21:22.544Z,55.70
2022-08-10T12:24:02.482Z,56.20
2022-08-10T12:26:34.749Z,56.20
2022-08-10T12:29:04.505Z,56.40
2022-08-10T12:31:35.218Z,56.50
2022-08-10T12:34:09.762Z,56.60
2022-08-10T12:36:39.192Z,56.60
2022-08-10T12:39:12.354Z,56.80
2022-08-10T12:41:45.901Z,56.70
2022-08-10T12:44:15.874Z,56.80
2022-08-10T12:46:50.603Z,56.70
2022-08-10T12:49:20.469Z,56.80
2022-08-10T12:51:51.424Z,56.70
2022-08-10T12:54:31.725Z,56.80
2022-08-10T12:57:04.626Z,57.00
2022-08-10T12:59:32.549Z,57.10
2022-08-10T13:02:10.010Z,57.00
2022-08-10T13:04:39.225Z,56.90
2022-08-10T13:07:07.065Z,57.00
2022-08-10T13:09:55.704Z,57.00
2022-08-10T13:12:36.970Z,56.90
2022-08-10T13:15:45.593Z,56.90
2022-08-10T13:18:00.628Z,56.70
2022-08-10T13:20:29.785Z,56.10
2022-08-10T13:23:00.199Z,55.10
2022-08-10T13:25:32.685Z,54.00
2022-08-10T13:28:37.264Z,53.10
2022-08-10T13:30:51.480Z,52.00
2022-08-10T13:34:39.509Z,51.30
2022-08-10T13:36:07.857Z,50.40
2022-08-10T13:38:35.654Z,49.90
2022-08-10T13:41:03.516Z,49.50
2022-08-10T13:43:32.683Z,49.10
2022-08-10T13:46:00.625Z,48.70
2022-08-10T13:48:29.345Z,48.40
2022-08-10T13:50:59.209Z,48.30
2022-08-10T13:53:30.659Z,48.10
2022-08-10T13:55:58.462Z,48.20
2022-08-10T13:58:27.700Z,48.20
2022-08-10T14:00:57.083Z,48.20
2022-08-10T14:03:24.940Z,48.20
2022-08-10T14:05:53.389Z,48.10
2022-08-10T14:08:22.548Z,48.10
2022-08-10T14:11:09.631Z,48.00
2022-08-10T14:13:42.321Z,47.80
2022-08-10T14:16:12.569Z,47.80
2022-08-10T14:18:42.171Z,47.60
2022-08-10T14:21:10.151Z,47.50
2022-08-10T14:23:41.021Z,47.40
2022-08-10T14:26:09.558Z,47.30
2022-08-10T14:28:39.784Z,47.10
2022-08-10T14:31:09.667Z,47.00
2022-08-10T14:33:39.110Z,46.80
2022-08-10T14:36:23.262Z,46.70
2022-08-10T14:38:53.127Z,46.50
2022-08-10T14:42:04.223Z,46.40
2022-08-10T14:44:13.809Z,46.20
2022-08-10T14:46:45.382Z,46.10
2022-08-10T14:49:26.555Z,46.00
2022-08-10T14:52:02.041Z,45.80
2022-08-10T14:54:30.559Z,45.60
2022-08-10T14:56:58.628Z,45.50
2022-08-10T15:00:22.798Z,45.40
2022-08-10T15:02:38.550Z,45.30
2022-08-10T15:05:09.765Z,45.10
2022-08-10T15:07:38.105Z,44.90
2022-08-10T15:10:07.964Z,44.80
2022-08-10T15:12:37.032Z,44.60
2022-08-10T15:15:08.305Z,44.50
2022-08-10T15:17:37.644Z,44.20
2022-08-10T15:20:14.941Z,44.10
2022-08-10T15:22:46.726Z,43.90
2022-08-10T15:25:19.531Z,43.70
2022-08-10T15:27:54.510Z,43.60
2022-08-10T15:30:30.153Z,43.40
2022-08-10T15:33:17.194Z,43.30
2022-08-10T15:36:08.452Z,43.10
2022-08-10T15:38:39.033Z,42.90
2022-08-10T15:41:09.431Z,42.80
2022-08-10T15:43:44.761Z,42.70
2022-08-10T15:46:17.141Z,42.60
2022-08-10T15:48:48.012Z,42.40
2022-08-10T15:51:23.230Z,42.30
2022-08-10T15:54:01.956Z,42.20
2022-08-10T15:56:33.353Z,42.00
2022-08-10T15:59:08.419Z,41.90
2022-08-10T16:02:14.430Z,41.80
2022-08-10T16:04:32.360Z,41.60
2022-08-10T16:07:03.513Z,41.50
2022-08-10T16:10:11.052Z,41.40
2022-08-10T16:12:30.016Z,41.30
2022-08-10T16:14:58.351Z,41.20
2022-08-10T16:17:26.292Z,41.00
2022-08-10T16:19:55.408Z,41.00
2022-08-10T16:22:33.965Z,40.80
2022-08-10T16:25:10.613Z,40.60
2022-08-10T16:27:38.563Z,40.50
2022-08-10T16:30:07.892Z,40.40
2022-08-10T16:32:38.458Z,40.30
2022-08-10T16:35:09.356Z,40.20
2022-08-10T16:37:57.908Z,40.10
2022-08-10T16:40:28.022Z,40.00
2022-08-10T16:42:56.132Z,39.80
2022-08-10T16:45:32.370Z,39.80
2022-08-10T16:48:00.379Z,39.70
2022-08-10T16:50:29.705Z,39.60
2022-08-10T16:53:01.887Z,39.50
2022-08-10T16:55:47.925Z,39.40
2022-08-10T16:58:19.176Z,39.30
2022-08-10T17:00:47.343Z,39.20
2022-08-10T17:03:22.411Z,39.10
2022-08-10T17:06:11.066Z,39.00
2022-08-10T17:08:48.445Z,38.90
2022-08-10T17:11:17.012Z,38.80
2022-08-10T17:13:45.094Z,38.70
2022-08-10T17:16:13.323Z,38.70
2022-08-10T17:18:43.551Z,38.60
2022-08-10T17:21:15.840Z,38.50
2022-08-10T17:23:47.885Z,38.40
2022-08-10T17:26:23.885Z,38.40
2022-08-10T17:29:08.472Z,38.30
2022-08-10T17:31:55.017Z,38.20
2022-08-10T17:34:25.946Z,38.10
2022-08-10T17:36:58.222Z,38.00
2022-08-10T17:39:30.564Z,37.90
2022-08-10T17:42:00.342Z,37.90
2022-08-10T17:44:28.541Z,37.80
2022-08-10T17:46:56.600Z,37.70
2022-08-10T17:49:29.163Z,37.70
2022-08-10T17:51:57.959Z,37.60
2022-08-10T17:54:31.128Z,37.50
2022-08-10T17:57:00.505Z,37.50
2022-08-10T17:59:30.026Z,37.40
2022-08-10T18:02:02.347Z,37.30
2022-08-10T18:04:41.441Z,37.20
2022-08-10T18:07:10.973Z,37.20
2022-08-10T18:09:41.773Z,37.10
2022-08-10T18:12:18.102Z,37.00
2022-08-10T18:14:48.254Z,37.00
2022-08-10T18:17:18.370Z,36.90
2022-08-10T18:19:48.286Z,36.80
2022-08-10T18:22:16.333Z,36.70
2022-08-10T18:24:45.851Z,36.70
2022-08-10T18:27:14.628Z,36.60
2022-08-10T18:29:44.273Z,36.50
2022-08-10T18:32:12.930Z,36.50
2022-08-10T18:34:41.749Z,36.40
2022-08-10T18:37:11.114Z,36.30
2022-08-10T18:39:40.754Z,36.20
2022-08-10T18:42:11.633Z,36.20
2022-08-10T18:44:42.259Z,36.10
2022-08-10T18:47:13.938Z,36.00
2022-08-10T18:49:52.144Z,36.00
2022-08-10T18:52:20.099Z,35.90
2022-08-10T18:54:49.045Z,35.90
2022-08-10T18:57:28.417Z,35.80
2022-08-10T19:00:08.993Z,35.70
2022-08-10T19:03:01.989Z,35.60
2022-08-10T19:05:37.958Z,35.60
2022-08-10T19:08:49.266Z,35.50
2022-08-10T19:11:21.906Z,35.40
2022-08-10T19:13:55.235Z,35.30
2022-08-10T19:16:40.503Z,35.20
2022-08-10T19:19:21.965Z,35.20
2022-08-10T19:21:55.364Z,35.10
2022-08-10T19:24:26.323Z,35.00
2022-08-10T19:26:58.364Z,35.00
2022-08-10T19:30:08.441Z,34.90
2022-08-10T19:32:28.589Z,34.80
2022-08-10T19:35:02.485Z,34.80
2022-08-10T19:37:36.355Z,34.70
2022-08-10T19:40:12.191Z,34.70
2022-08-10T19:42:41.782Z,34.50
2022-08-10T19:45:56.038Z,34.50
2022-08-10T19:48:12.844Z,34.40
2022-08-10T19:50:42.954Z,34.30
2022-08-10T19:53:13.438Z,34.20
2022-08-10T19:55:43.379Z,34.20
2022-08-10T19:58:18.538Z,34.10
2022-08-10T20:00:54.962Z,34.10
2022-08-10T20:03:24.873Z,34.00
2022-08-10T20:06:18.882Z,33.90
2022-08-10T20:08:48.687Z,33.90
2022-08-10T20:11:44.234Z,33.80
2022-08-10T20:14:21.916Z,33.70
2022-08-10T20:16:56.038Z,33.70
2022-08-10T20:19:53.357Z,33.60
2022-08-10T20:22:16.162Z,33.50
2022-08-10T20:24:48.734Z,33.50
2022-08-10T20:27:57.779Z,33.40
2022-08-10T20:30:09.535Z,33.40
2022-08-10T20:32:41.563Z,33.30
2022-08-10T20:35:11.537Z,33.30
2022-08-10T20:38:02.735Z,33.20
2022-08-10T20:40:33.208Z,33.20
2022-08-10T20:43:06.715Z,33.10
2022-08-10T20:46:05.087Z,33.00
2022-08-10T20:48:29.548Z,33.00
2022-08-10T20:50:58.569Z,33.00
2022-08-10T20:53:28.568Z,32.90
2022-08-10T20:56:00.752Z,32.90
2022-08-10T20:58:35.586Z,32.80
2022-08-10T21:01:12.777Z,32.80
2022-08-10T21:04:01.638Z,32.70
2022-08-10T21:07:28.142Z,32.70
2022-08-10T21:10:04.960Z,32.70
2022-08-10T21:12:51.250Z,32.60
2022-08-10T21:15:25.221Z,32.60
2022-08-10T21:18:01.866Z,32.50
2022-08-10T21:20:47.421Z,32.50
2022-08-10T21:23:22.024Z,32.40
2022-08-10T21:25:58.940Z,32.40
2022-08-10T21:28:50.172Z,32.40
2022-08-10T21:31:31.795Z,32.40
2022-08-10T21:34:09.180Z,32.30
2022-08-10T21:36:50.558Z,32.30
2022-08-10T21:39:21.995Z,32.20
2022-08-10T21:42:32.066Z,32.20
2022-08-10T21:45:47.535Z,32.10
2022-08-10T21:48:43.178Z,32.10
2022-08-10T21:54:43.023Z,31.90
2022-08-10T21:57:43.008Z,31.90
2022-08-10T22:00:30.652Z,31.90
2022-08-10T22:03:17.273Z,31.80
2022-08-10T22:06:07.205Z,31.80
2022-08-10T22:08:57.486Z,31.70
2022-08-10T22:11:45.150Z,31.70
2022-08-10T22:14:33.473Z,31.60
2022-08-10T22:18:03.126Z,31.50
2022-08-10T22:20:27.701Z,31.50
2022-08-10T22:23:24.049Z,31.50
2022-08-10T22:26:15.798Z,31.50
2022-08-10T22:29:08.558Z,31.40
2022-08-10T22:31:28.474Z,32.00
2022-08-10T22:32:01.672Z,31.40
2022-08-10T22:35:09.711Z,31.30
2022-08-10T22:38:07.653Z,31.30
2022-08-10T22:40:53.172Z,31.20
2022-08-10T22:43:40.588Z,31.20
2022-08-10T22:46:37.407Z,31.20
2022-08-10T22:49:04.105Z,31.10
2022-08-10T22:51:42.886Z,31.00
2022-08-10T22:54:32.359Z,31.00
2022-08-10T22:57:18.796Z,31.00
2022-08-10T22:59:46.539Z,30.90
2022-08-10T23:02:27.897Z,30.90
2022-08-10T23:04:58.070Z,30.80
2022-08-10T23:07:27.686Z,30.80
2022-08-10T23:09:58.558Z,30.80
2022-08-10T23:12:29.292Z,30.80
2022-08-10T23:15:14.733Z,30.70
2022-08-10T23:18:05.194Z,30.70
2022-08-10T23:20:33.348Z,30.70
2022-08-10T23:23:09.033Z,30.60
2022-08-10T23:25:43.742Z,30.60
2022-08-10T23:28:38.707Z,30.50
2022-08-10T23:31:14.033Z,30.50
2022-08-10T23:33:45.741Z,30.40
2022-08-10T23:36:34.691Z,30.40
2022-08-10T23:39:25.479Z,30.40
2022-08-10T23:41:52.831Z,30.40
2022-08-10T23:44:21.448Z,30.30
2022-08-10T23:46:49.354Z,30.30
2022-08-10T23:49:18.721Z,30.20
2022-08-10T23:51:55.093Z,30.20
2022-08-10T23:54:24.082Z,30.20
2022-08-10T23:56:53.483Z,30.10
2022-08-10T23:59:22.370Z,30.10
